This is the latest recevied weather packets stored in our database for station/object SM6LNJ-13. If no packets are shown the sender has not sent any weather packets the latest 10 day(s).
| Time | Temp. | Humidity | Pressure | Rain* | Wind** | Luminosity | Snow |
|---|---|---|---|---|---|---|---|
| 1777700626 | 13.33° C | 74% | 1427.2 hPa | 0 mm | - | - | - |
| 1777700505 | 13.33° C | 75% | 1426.8 hPa | 0 mm | - | - | - |
| 1777700386 | 13.33° C | 76% | 1426.4 hPa | 0 mm | - | - | - |
| 1777700146 | 12.78° C | 78% | 1425.5 hPa | 0 mm | - | - | - |
| 1777700026 | 12.78° C | 79% | 1425.3 hPa | 0 mm | - | - | - |
| 1777699905 | 12.22° C | 79% | 1425 hPa | 0 mm | - | - | - |
| 1777699786 | 12.22° C | 79% | 1424.7 hPa | 0 mm | - | - | - |
| 1777699665 | 12.22° C | 80% | 1424.5 hPa | 0 mm | - | - | - |
| 1777699425 | 12.22° C | 81% | 1423.9 hPa | 0 mm | - | - | - |
| 1777699306 | 11.67° C | 82% | 1423.6 hPa | 0 mm | - | - | - |
| 1777699065 | 11.67° C | 83% | 1423 hPa | 0 mm | - | - | - |
| 1777698826 | 11.11° C | 83% | 1422.4 hPa | 0 mm | - | - | - |
| 1777698706 | 11.11° C | 84% | 1422 hPa | 0 mm | - | - | - |
| 1777696186 | 8.89° C | 85% | 1416.3 hPa | 0 mm | - | - | - |
| 1777695680 | 8.33° C | 84% | - | - | - | - | - |
| 1777695585 | 8.33° C | 84% | 1415.3 hPa | 0 mm | - | - | - |
| 1777695466 | 8.33° C | 84% | 1415.1 hPa | 0 mm | - | - | - |
| 1777695346 | 8.33° C | 84% | 1415 hPa | 0 mm | - | - | - |
| 1777695226 | 8.33° C | 84% | 1414.9 hPa | 0 mm | - | - | - |
| 1777695106 | 8.33° C | 84% | 1414.8 hPa | 0 mm | - | - | - |
| 1777694985 | 8.33° C | 84% | 1414.8 hPa | 0 mm | - | - | - |
| 1777694873 | 7.78° C | 84% | 1414.6 hPa | 0 mm | - | - | - |
| 1777694746 | 7.78° C | 84% | 1414.5 hPa | 0 mm | - | - | - |
| 1777694513 | 7.78° C | 83% | 1414.4 hPa | 0 mm | - | - | - |
| 1777694393 | 7.78° C | 83% | 1414.4 hPa | 0 mm | - | - | - |
* Rain latest hour (hover to see other rain measurements)
** Current wind speed in m/s (hover to see current wind gust speed)